sensor_id;sensor_type;location;lat;lon;timestamp;P1;durP1;ratioP1;P2;durP2;ratioP2
21769;SDS011;11046;49.558;8.674;2023-03-04T00:00:18;42.43;;;18.70;;
21769;SDS011;11046;49.558;8.674;2023-03-04T00:03:19;44.67;;;18.97;;
21769;SDS011;11046;49.558;8.674;2023-03-04T00:06:20;40.70;;;16.97;;
21769;SDS011;11046;49.558;8.674;2023-03-04T00:09:20;42.40;;;17.73;;
21769;SDS011;11046;49.558;8.674;2023-03-04T00:12:21;41.03;;;17.37;;
21769;SDS011;11046;49.558;8.674;2023-03-04T00:15:22;40.43;;;16.60;;
21769;SDS011;11046;49.558;8.674;2023-03-04T00:18:22;47.17;;;18.33;;
21769;SDS011;11046;49.558;8.674;2023-03-04T00:21:23;40.13;;;16.77;;
21769;SDS011;11046;49.558;8.674;2023-03-04T00:24:23;39.30;;;16.30;;
21769;SDS011;11046;49.558;8.674;2023-03-04T00:27:24;45.00;;;18.10;;
21769;SDS011;11046;49.558;8.674;2023-03-04T00:30:24;41.17;;;16.73;;
21769;SDS011;11046;49.558;8.674;2023-03-04T00:33:25;42.80;;;17.63;;
21769;SDS011;11046;49.558;8.674;2023-03-04T00:36:26;39.77;;;17.57;;
21769;SDS011;11046;49.558;8.674;2023-03-04T00:39:29;42.57;;;17.27;;
21769;SDS011;11046;49.558;8.674;2023-03-04T00:42:29;37.23;;;15.70;;
21769;SDS011;11046;49.558;8.674;2023-03-04T00:45:30;36.63;;;16.17;;
21769;SDS011;11046;49.558;8.674;2023-03-04T00:48:30;40.40;;;16.37;;
21769;SDS011;11046;49.558;8.674;2023-03-04T00:51:31;37.27;;;15.13;;
21769;SDS011;11046;49.558;8.674;2023-03-04T00:54:31;37.47;;;15.30;;
21769;SDS011;11046;49.558;8.674;2023-03-04T00:57:32;35.03;;;15.53;;
21769;SDS011;11046;49.558;8.674;2023-03-04T01:00:33;34.70;;;14.87;;
21769;SDS011;11046;49.558;8.674;2023-03-04T01:03:33;40.57;;;14.37;;
21769;SDS011;11046;49.558;8.674;2023-03-04T01:06:34;35.27;;;14.10;;
21769;SDS011;11046;49.558;8.674;2023-03-04T01:09:35;32.77;;;14.40;;
21769;SDS011;11046;49.558;8.674;2023-03-04T01:12:35;40.10;;;14.20;;
21769;SDS011;11046;49.558;8.674;2023-03-04T01:15:36;34.87;;;13.83;;
21769;SDS011;11046;49.558;8.674;2023-03-04T01:18:39;33.10;;;14.40;;
21769;SDS011;11046;49.558;8.674;2023-03-04T01:21:39;36.17;;;14.47;;
21769;SDS011;11046;49.558;8.674;2023-03-04T01:24:40;37.20;;;13.27;;
21769;SDS011;11046;49.558;8.674;2023-03-04T01:27:40;36.60;;;13.83;;
21769;SDS011;11046;49.558;8.674;2023-03-04T01:30:41;35.60;;;13.80;;
21769;SDS011;11046;49.558;8.674;2023-03-04T01:33:42;35.43;;;13.50;;
21769;SDS011;11046;49.558;8.674;2023-03-04T01:36:43;37.87;;;14.17;;
21769;SDS011;11046;49.558;8.674;2023-03-04T01:39:44;32.03;;;12.83;;
21769;SDS011;11046;49.558;8.674;2023-03-04T01:42:45;33.33;;;13.47;;
21769;SDS011;11046;49.558;8.674;2023-03-04T01:45:47;39.90;;;14.57;;
21769;SDS011;11046;49.558;8.674;2023-03-04T01:48:49;40.83;;;14.20;;
21769;SDS011;11046;49.558;8.674;2023-03-04T01:51:51;34.93;;;13.60;;
21769;SDS011;11046;49.558;8.674;2023-03-04T01:54:53;32.93;;;13.10;;
21769;SDS011;11046;49.558;8.674;2023-03-04T01:57:54;37.27;;;14.20;;
21769;SDS011;11046;49.558;8.674;2023-03-04T02:00:57;38.70;;;13.80;;
21769;SDS011;11046;49.558;8.674;2023-03-04T02:03:58;39.13;;;13.90;;
21769;SDS011;11046;49.558;8.674;2023-03-04T02:06:59;35.93;;;14.57;;
21769;SDS011;11046;49.558;8.674;2023-03-04T02:10:01;38.50;;;14.30;;
21769;SDS011;11046;49.558;8.674;2023-03-04T02:13:03;40.20;;;14.97;;
21769;SDS011;11046;49.558;8.674;2023-03-04T02:16:04;39.73;;;14.57;;
21769;SDS011;11046;49.558;8.674;2023-03-04T02:19:06;43.67;;;16.63;;
21769;SDS011;11046;49.558;8.674;2023-03-04T02:22:13;45.60;;;16.63;;
21769;SDS011;11046;49.558;8.674;2023-03-04T02:25:18;40.40;;;16.53;;
21769;SDS011;11046;49.558;8.674;2023-03-04T02:28:26;43.17;;;15.33;;
21769;SDS011;11046;49.558;8.674;2023-03-04T02:31:31;36.97;;;15.47;;
21769;SDS011;11046;49.558;8.674;2023-03-04T02:34:37;38.13;;;16.10;;
21769;SDS011;11046;49.558;8.674;2023-03-04T02:37:44;39.87;;;17.03;;
21769;SDS011;11046;49.558;8.674;2023-03-04T02:40:47;41.50;;;16.43;;
21769;SDS011;11046;49.558;8.674;2023-03-04T02:43:51;43.30;;;16.73;;
21769;SDS011;11046;49.558;8.674;2023-03-04T02:46:53;37.63;;;15.97;;
21769;SDS011;11046;49.558;8.674;2023-03-04T02:49:55;42.07;;;17.13;;
21769;SDS011;11046;49.558;8.674;2023-03-04T02:52:55;44.73;;;17.10;;
21769;SDS011;11046;49.558;8.674;2023-03-04T02:55:56;48.17;;;17.03;;
21769;SDS011;11046;49.558;8.674;2023-03-04T02:58:58;45.17;;;17.33;;
21769;SDS011;11046;49.558;8.674;2023-03-04T03:01:59;44.67;;;16.27;;
21769;SDS011;11046;49.558;8.674;2023-03-04T03:04:59;44.83;;;16.73;;
21769;SDS011;11046;49.558;8.674;2023-03-04T03:08:00;41.73;;;16.43;;
21769;SDS011;11046;49.558;8.674;2023-03-04T03:11:01;39.73;;;15.40;;
21769;SDS011;11046;49.558;8.674;2023-03-04T03:14:04;41.83;;;15.50;;
21769;SDS011;11046;49.558;8.674;2023-03-04T03:17:05;45.37;;;15.83;;
21769;SDS011;11046;49.558;8.674;2023-03-04T03:20:06;42.10;;;14.93;;
21769;SDS011;11046;49.558;8.674;2023-03-04T03:23:09;39.03;;;16.00;;
21769;SDS011;11046;49.558;8.674;2023-03-04T03:26:10;44.83;;;18.10;;
21769;SDS011;11046;49.558;8.674;2023-03-04T03:29:10;47.07;;;17.40;;
21769;SDS011;11046;49.558;8.674;2023-03-04T03:32:11;45.43;;;17.03;;
21769;SDS011;11046;49.558;8.674;2023-03-04T03:35:12;45.07;;;16.50;;
21769;SDS011;11046;49.558;8.674;2023-03-04T03:38:13;43.50;;;17.33;;
21769;SDS011;11046;49.558;8.674;2023-03-04T03:41:14;42.37;;;16.57;;
21769;SDS011;11046;49.558;8.674;2023-03-04T03:44:15;52.37;;;17.80;;
21769;SDS011;11046;49.558;8.674;2023-03-04T03:47:15;43.40;;;18.37;;
21769;SDS011;11046;49.558;8.674;2023-03-04T03:50:16;70.33;;;25.20;;
21769;SDS011;11046;49.558;8.674;2023-03-04T03:53:16;47.23;;;17.37;;
21769;SDS011;11046;49.558;8.674;2023-03-04T03:56:17;41.60;;;16.77;;
21769;SDS011;11046;49.558;8.674;2023-03-04T03:59:18;53.27;;;19.60;;
21769;SDS011;11046;49.558;8.674;2023-03-04T04:02:18;51.20;;;18.43;;
21769;SDS011;11046;49.558;8.674;2023-03-04T04:05:19;50.80;;;19.13;;
21769;SDS011;11046;49.558;8.674;2023-03-04T04:08:20;45.97;;;17.53;;
21769;SDS011;11046;49.558;8.674;2023-03-04T04:11:20;43.50;;;16.77;;
21769;SDS011;11046;49.558;8.674;2023-03-04T04:14:21;53.80;;;16.83;;
21769;SDS011;11046;49.558;8.674;2023-03-04T04:17:21;41.93;;;16.77;;
21769;SDS011;11046;49.558;8.674;2023-03-04T04:20:22;48.17;;;19.13;;
21769;SDS011;11046;49.558;8.674;2023-03-04T04:23:23;41.07;;;17.17;;
21769;SDS011;11046;49.558;8.674;2023-03-04T04:26:23;41.47;;;16.20;;
21769;SDS011;11046;49.558;8.674;2023-03-04T04:29:24;42.03;;;17.37;;
21769;SDS011;11046;49.558;8.674;2023-03-04T04:32:24;39.17;;;16.70;;
21769;SDS011;11046;49.558;8.674;2023-03-04T04:35:25;39.97;;;16.03;;
21769;SDS011;11046;49.558;8.674;2023-03-04T04:38:26;44.90;;;16.97;;
21769;SDS011;11046;49.558;8.674;2023-03-04T04:41:37;43.30;;;16.43;;
21769;SDS011;11046;49.558;8.674;2023-03-04T04:44:41;45.90;;;16.57;;
21769;SDS011;11046;49.558;8.674;2023-03-04T04:47:42;45.03;;;17.10;;
21769;SDS011;11046;49.558;8.674;2023-03-04T04:50:42;40.70;;;16.43;;
21769;SDS011;11046;49.558;8.674;2023-03-04T04:53:43;44.03;;;15.93;;
21769;SDS011;11046;49.558;8.674;2023-03-04T04:56:43;39.60;;;16.80;;
21769;SDS011;11046;49.558;8.674;2023-03-04T04:59:44;40.33;;;15.43;;
21769;SDS011;11046;49.558;8.674;2023-03-04T05:02:44;41.43;;;17.00;;
21769;SDS011;11046;49.558;8.674;2023-03-04T05:05:45;35.33;;;14.67;;
21769;SDS011;11046;49.558;8.674;2023-03-04T05:08:46;43.13;;;16.10;;
21769;SDS011;11046;49.558;8.674;2023-03-04T05:11:46;45.43;;;16.97;;
21769;SDS011;11046;49.558;8.674;2023-03-04T05:14:47;39.20;;;16.23;;
21769;SDS011;11046;49.558;8.674;2023-03-04T05:17:48;42.07;;;15.87;;
21769;SDS011;11046;49.558;8.674;2023-03-04T05:20:49;38.83;;;16.00;;
21769;SDS011;11046;49.558;8.674;2023-03-04T05:23:51;38.73;;;15.37;;
21769;SDS011;11046;49.558;8.674;2023-03-04T05:26:51;43.97;;;14.73;;
21769;SDS011;11046;49.558;8.674;2023-03-04T05:29:52;40.27;;;14.60;;
21769;SDS011;11046;49.558;8.674;2023-03-04T05:32:54;39.50;;;15.03;;
21769;SDS011;11046;49.558;8.674;2023-03-04T05:35:55;36.07;;;15.47;;
21769;SDS011;11046;49.558;8.674;2023-03-04T05:38:55;37.20;;;15.53;;
21769;SDS011;11046;49.558;8.674;2023-03-04T05:41:56;38.60;;;15.10;;
21769;SDS011;11046;49.558;8.674;2023-03-04T05:44:56;52.30;;;20.20;;
21769;SDS011;11046;49.558;8.674;2023-03-04T05:47:57;47.03;;;17.97;;
21769;SDS011;11046;49.558;8.674;2023-03-04T05:50:58;46.90;;;19.20;;
21769;SDS011;11046;49.558;8.674;2023-03-04T05:54:00;51.90;;;18.33;;
21769;SDS011;11046;49.558;8.674;2023-03-04T05:57:01;48.40;;;18.13;;
21769;SDS011;11046;49.558;8.674;2023-03-04T06:00:02;48.67;;;17.63;;
21769;SDS011;11046;49.558;8.674;2023-03-04T06:03:13;53.50;;;19.30;;
21769;SDS011;11046;49.558;8.674;2023-03-04T06:06:18;59.87;;;20.23;;
21769;SDS011;11046;49.558;8.674;2023-03-04T06:09:19;49.97;;;19.17;;
21769;SDS011;11046;49.558;8.674;2023-03-04T06:12:20;55.90;;;19.97;;
21769;SDS011;11046;49.558;8.674;2023-03-04T06:15:21;47.23;;;20.33;;
21769;SDS011;11046;49.558;8.674;2023-03-04T06:18:21;51.93;;;20.50;;
21769;SDS011;11046;49.558;8.674;2023-03-04T06:21:23;52.30;;;20.20;;
21769;SDS011;11046;49.558;8.674;2023-03-04T06:24:23;51.50;;;20.70;;
21769;SDS011;11046;49.558;8.674;2023-03-04T06:27:24;54.53;;;20.30;;
21769;SDS011;11046;49.558;8.674;2023-03-04T06:30:24;51.47;;;18.63;;
21769;SDS011;11046;49.558;8.674;2023-03-04T06:33:25;46.10;;;17.13;;
21769;SDS011;11046;49.558;8.674;2023-03-04T06:36:26;43.27;;;17.50;;
21769;SDS011;11046;49.558;8.674;2023-03-04T06:39:26;45.23;;;16.57;;
21769;SDS011;11046;49.558;8.674;2023-03-04T06:42:27;47.23;;;16.90;;
21769;SDS011;11046;49.558;8.674;2023-03-04T06:45:28;40.47;;;15.93;;
21769;SDS011;11046;49.558;8.674;2023-03-04T06:48:29;43.80;;;17.00;;
21769;SDS011;11046;49.558;8.674;2023-03-04T06:51:29;43.97;;;16.67;;
21769;SDS011;11046;49.558;8.674;2023-03-04T06:54:30;43.77;;;15.87;;
21769;SDS011;11046;49.558;8.674;2023-03-04T06:57:31;41.47;;;16.50;;
21769;SDS011;11046;49.558;8.674;2023-03-04T07:00:31;44.07;;;17.70;;
21769;SDS011;11046;49.558;8.674;2023-03-04T07:03:32;45.57;;;17.53;;
21769;SDS011;11046;49.558;8.674;2023-03-04T07:06:32;49.03;;;18.67;;
21769;SDS011;11046;49.558;8.674;2023-03-04T07:09:33;53.03;;;20.20;;
21769;SDS011;11046;49.558;8.674;2023-03-04T07:12:33;57.47;;;22.80;;
21769;SDS011;11046;49.558;8.674;2023-03-04T07:15:34;49.67;;;20.60;;
21769;SDS011;11046;49.558;8.674;2023-03-04T07:18:36;54.73;;;21.67;;
21769;SDS011;11046;49.558;8.674;2023-03-04T07:21:37;54.83;;;19.80;;
21769;SDS011;11046;49.558;8.674;2023-03-04T07:24:38;48.80;;;20.43;;
21769;SDS011;11046;49.558;8.674;2023-03-04T07:27:38;65.23;;;26.10;;
21769;SDS011;11046;49.558;8.674;2023-03-04T07:30:39;50.17;;;20.23;;
21769;SDS011;11046;49.558;8.674;2023-03-04T07:33:40;55.40;;;19.93;;
21769;SDS011;11046;49.558;8.674;2023-03-04T07:36:41;52.13;;;20.67;;
21769;SDS011;11046;49.558;8.674;2023-03-04T07:39:43;56.43;;;19.97;;
21769;SDS011;11046;49.558;8.674;2023-03-04T07:42:48;49.97;;;19.57;;
21769;SDS011;11046;49.558;8.674;2023-03-04T07:45:56;61.23;;;23.83;;
21769;SDS011;11046;49.558;8.674;2023-03-04T07:48:58;61.83;;;22.77;;
21769;SDS011;11046;49.558;8.674;2023-03-04T07:52:01;57.07;;;21.47;;
21769;SDS011;11046;49.558;8.674;2023-03-04T07:55:03;87.70;;;34.13;;
21769;SDS011;11046;49.558;8.674;2023-03-04T07:58:07;69.00;;;25.33;;
21769;SDS011;11046;49.558;8.674;2023-03-04T08:01:14;62.63;;;22.13;;
21769;SDS011;11046;49.558;8.674;2023-03-04T08:04:17;62.97;;;23.23;;
21769;SDS011;11046;49.558;8.674;2023-03-04T08:07:18;55.43;;;21.77;;
21769;SDS011;11046;49.558;8.674;2023-03-04T08:10:26;59.03;;;22.47;;
21769;SDS011;11046;49.558;8.674;2023-03-04T08:13:30;64.07;;;22.50;;
21769;SDS011;11046;49.558;8.674;2023-03-04T08:16:31;72.87;;;25.87;;
21769;SDS011;11046;49.558;8.674;2023-03-04T08:19:35;69.50;;;25.70;;
21769;SDS011;11046;49.558;8.674;2023-03-04T08:22:38;61.00;;;22.63;;
21769;SDS011;11046;49.558;8.674;2023-03-04T08:25:44;68.03;;;23.47;;
21769;SDS011;11046;49.558;8.674;2023-03-04T08:28:50;71.83;;;25.13;;
21769;SDS011;11046;49.558;8.674;2023-03-04T08:31:52;68.03;;;22.60;;
21769;SDS011;11046;49.558;8.674;2023-03-04T08:34:54;65.07;;;23.40;;
21769;SDS011;11046;49.558;8.674;2023-03-04T08:37:58;60.17;;;21.90;;
21769;SDS011;11046;49.558;8.674;2023-03-04T08:40:58;63.50;;;22.87;;
21769;SDS011;11046;49.558;8.674;2023-03-04T08:44:04;63.80;;;22.83;;
21769;SDS011;11046;49.558;8.674;2023-03-04T08:47:11;65.37;;;25.43;;
21769;SDS011;11046;49.558;8.674;2023-03-04T08:50:13;70.77;;;25.80;;
21769;SDS011;11046;49.558;8.674;2023-03-04T08:53:14;65.27;;;25.83;;
21769;SDS011;11046;49.558;8.674;2023-03-04T08:56:15;83.43;;;32.93;;
21769;SDS011;11046;49.558;8.674;2023-03-04T08:59:19;76.83;;;28.63;;
21769;SDS011;11046;49.558;8.674;2023-03-04T09:02:19;64.50;;;25.80;;
21769;SDS011;11046;49.558;8.674;2023-03-04T09:05:20;65.27;;;25.53;;
21769;SDS011;11046;49.558;8.674;2023-03-04T09:08:21;60.83;;;24.33;;
21769;SDS011;11046;49.558;8.674;2023-03-04T09:11:25;63.10;;;23.57;;
21769;SDS011;11046;49.558;8.674;2023-03-04T09:14:26;66.67;;;24.00;;
21769;SDS011;11046;49.558;8.674;2023-03-04T09:17:26;65.70;;;23.83;;
21769;SDS011;11046;49.558;8.674;2023-03-04T09:20:28;70.73;;;24.37;;
21769;SDS011;11046;49.558;8.674;2023-03-04T09:23:31;62.17;;;23.37;;
21769;SDS011;11046;49.558;8.674;2023-03-04T09:26:34;66.07;;;23.37;;
21769;SDS011;11046;49.558;8.674;2023-03-04T09:29:38;71.90;;;27.37;;
21769;SDS011;11046;49.558;8.674;2023-03-04T09:32:46;72.43;;;25.37;;
21769;SDS011;11046;49.558;8.674;2023-03-04T09:35:48;61.40;;;24.13;;
21769;SDS011;11046;49.558;8.674;2023-03-04T09:38:50;71.43;;;24.43;;
21769;SDS011;11046;49.558;8.674;2023-03-04T09:41:55;61.07;;;24.47;;
21769;SDS011;11046;49.558;8.674;2023-03-04T09:44:57;61.80;;;24.20;;
21769;SDS011;11046;49.558;8.674;2023-03-04T09:47:58;65.57;;;25.27;;
21769;SDS011;11046;49.558;8.674;2023-03-04T09:51:04;67.80;;;24.53;;
21769;SDS011;11046;49.558;8.674;2023-03-04T09:54:58;70.87;;;25.60;;
21769;SDS011;11046;49.558;8.674;2023-03-04T10:01:22;76.60;;;27.80;;
21769;SDS011;11046;49.558;8.674;2023-03-04T10:04:52;78.10;;;26.03;;
21769;SDS011;11046;49.558;8.674;2023-03-04T10:08:23;83.10;;;27.50;;
21769;SDS011;11046;49.558;8.674;2023-03-04T10:11:32;64.13;;;25.40;;
21769;SDS011;11046;49.558;8.674;2023-03-04T10:18:08;76.83;;;28.80;;
21769;SDS011;11046;49.558;8.674;2023-03-04T10:21:51;81.40;;;28.13;;
21769;SDS011;11046;49.558;8.674;2023-03-04T10:24:52;80.47;;;28.97;;
21769;SDS011;11046;49.558;8.674;2023-03-04T10:28:10;79.80;;;27.33;;
21769;SDS011;11046;49.558;8.674;2023-03-04T10:31:32;83.37;;;28.60;;
21769;SDS011;11046;49.558;8.674;2023-03-04T10:34:35;80.07;;;29.40;;
21769;SDS011;11046;49.558;8.674;2023-03-04T10:37:45;80.07;;;29.10;;
21769;SDS011;11046;49.558;8.674;2023-03-04T10:40:49;81.23;;;28.80;;
21769;SDS011;11046;49.558;8.674;2023-03-04T10:43:50;85.63;;;30.47;;
21769;SDS011;11046;49.558;8.674;2023-03-04T10:47:11;87.03;;;30.40;;
21769;SDS011;11046;49.558;8.674;2023-03-04T10:50:20;76.10;;;27.83;;
21769;SDS011;11046;49.558;8.674;2023-03-04T10:53:32;79.83;;;30.33;;
21769;SDS011;11046;49.558;8.674;2023-03-04T10:56:40;81.10;;;28.47;;
21769;SDS011;11046;49.558;8.674;2023-03-04T10:59:45;85.97;;;29.30;;
21769;SDS011;11046;49.558;8.674;2023-03-04T11:02:52;88.87;;;30.30;;
21769;SDS011;11046;49.558;8.674;2023-03-04T11:06:24;85.93;;;30.80;;
21769;SDS011;11046;49.558;8.674;2023-03-04T11:09:28;82.47;;;29.87;;
21769;SDS011;11046;49.558;8.674;2023-03-04T11:12:33;82.90;;;31.97;;
21769;SDS011;11046;49.558;8.674;2023-03-04T11:15:47;79.77;;;30.23;;
21769;SDS011;11046;49.558;8.674;2023-03-04T11:18:58;81.93;;;30.70;;
21769;SDS011;11046;49.558;8.674;2023-03-04T11:22:05;77.43;;;28.93;;
21769;SDS011;11046;49.558;8.674;2023-03-04T11:25:07;72.87;;;27.73;;
21769;SDS011;11046;49.558;8.674;2023-03-04T11:28:17;75.03;;;29.90;;
21769;SDS011;11046;49.558;8.674;2023-03-04T11:31:33;70.07;;;27.60;;
21769;SDS011;11046;49.558;8.674;2023-03-04T11:34:46;77.33;;;29.27;;
21769;SDS011;11046;49.558;8.674;2023-03-04T11:37:58;73.57;;;27.60;;
21769;SDS011;11046;49.558;8.674;2023-03-04T11:41:23;73.13;;;27.97;;
21769;SDS011;11046;49.558;8.674;2023-03-04T11:44:24;71.60;;;28.17;;
21769;SDS011;11046;49.558;8.674;2023-03-04T11:50:47;68.13;;;27.37;;
21769;SDS011;11046;49.558;8.674;2023-03-04T11:54:07;68.40;;;28.20;;
21769;SDS011;11046;49.558;8.674;2023-03-04T12:00:33;73.20;;;27.20;;
21769;SDS011;11046;49.558;8.674;2023-03-04T12:16:37;70.17;;;28.47;;
21769;SDS011;11046;49.558;8.674;2023-03-04T12:29:53;64.83;;;24.00;;
21769;SDS011;11046;49.558;8.674;2023-03-04T12:33:06;62.07;;;24.83;;
21769;SDS011;11046;49.558;8.674;2023-03-04T12:36:23;68.77;;;26.30;;
21769;SDS011;11046;49.558;8.674;2023-03-04T12:45:44;64.83;;;25.13;;
21769;SDS011;11046;49.558;8.674;2023-03-04T12:52:14;65.73;;;24.80;;
21769;SDS011;11046;49.558;8.674;2023-03-04T12:55:35;58.30;;;24.33;;
21769;SDS011;11046;49.558;8.674;2023-03-04T12:58:38;61.60;;;23.83;;
21769;SDS011;11046;49.558;8.674;2023-03-04T13:05:27;63.80;;;24.87;;
21769;SDS011;11046;49.558;8.674;2023-03-04T13:15:35;57.87;;;23.17;;
21769;SDS011;11046;49.558;8.674;2023-03-04T13:18:46;58.10;;;22.77;;
21769;SDS011;11046;49.558;8.674;2023-03-04T13:21:54;76.50;;;34.67;;
21769;SDS011;11046;49.558;8.674;2023-03-04T13:25:26;53.60;;;21.80;;
21769;SDS011;11046;49.558;8.674;2023-03-04T13:28:51;58.17;;;22.50;;
21769;SDS011;11046;49.558;8.674;2023-03-04T13:32:00;66.27;;;23.03;;
21769;SDS011;11046;49.558;8.674;2023-03-04T13:38:56;50.17;;;20.00;;
21769;SDS011;11046;49.558;8.674;2023-03-04T13:42:38;51.07;;;19.10;;
21769;SDS011;11046;49.558;8.674;2023-03-04T13:45:46;50.67;;;18.67;;
21769;SDS011;11046;49.558;8.674;2023-03-04T13:51:50;58.13;;;22.57;;
21769;SDS011;11046;49.558;8.674;2023-03-04T13:55:18;54.30;;;21.73;;
21769;SDS011;11046;49.558;8.674;2023-03-04T13:58:29;53.30;;;22.20;;
21769;SDS011;11046;49.558;8.674;2023-03-04T14:01:31;60.73;;;23.67;;
21769;SDS011;11046;49.558;8.674;2023-03-04T14:04:41;54.13;;;20.63;;
21769;SDS011;11046;49.558;8.674;2023-03-04T14:07:46;50.93;;;20.57;;
21769;SDS011;11046;49.558;8.674;2023-03-04T14:10:53;54.00;;;21.10;;
21769;SDS011;11046;49.558;8.674;2023-03-04T14:13:55;55.47;;;20.97;;
21769;SDS011;11046;49.558;8.674;2023-03-04T14:17:00;53.83;;;21.33;;
21769;SDS011;11046;49.558;8.674;2023-03-04T14:23:26;51.40;;;20.20;;
21769;SDS011;11046;49.558;8.674;2023-03-04T14:26:32;52.53;;;20.20;;
21769;SDS011;11046;49.558;8.674;2023-03-04T14:29:33;53.03;;;20.00;;
21769;SDS011;11046;49.558;8.674;2023-03-04T14:32:34;48.03;;;19.33;;
21769;SDS011;11046;49.558;8.674;2023-03-04T14:35:47;46.53;;;19.07;;
21769;SDS011;11046;49.558;8.674;2023-03-04T14:38:54;45.03;;;18.90;;
21769;SDS011;11046;49.558;8.674;2023-03-04T14:42:00;49.17;;;18.87;;
21769;SDS011;11046;49.558;8.674;2023-03-04T14:45:17;53.03;;;20.23;;
21769;SDS011;11046;49.558;8.674;2023-03-04T14:48:20;55.37;;;19.47;;
21769;SDS011;11046;49.558;8.674;2023-03-04T14:51:44;46.87;;;18.97;;
21769;SDS011;11046;49.558;8.674;2023-03-04T14:54:58;55.63;;;20.60;;
21769;SDS011;11046;49.558;8.674;2023-03-04T14:58:20;51.43;;;19.57;;
21769;SDS011;11046;49.558;8.674;2023-03-04T15:01:32;53.07;;;21.80;;
21769;SDS011;11046;49.558;8.674;2023-03-04T15:04:34;49.37;;;19.17;;
21769;SDS011;11046;49.558;8.674;2023-03-04T15:07:37;46.97;;;17.93;;
21769;SDS011;11046;49.558;8.674;2023-03-04T15:10:42;41.90;;;17.73;;
21769;SDS011;11046;49.558;8.674;2023-03-04T15:13:53;49.33;;;17.50;;
21769;SDS011;11046;49.558;8.674;2023-03-04T15:16:55;45.60;;;16.93;;
21769;SDS011;11046;49.558;8.674;2023-03-04T15:19:57;42.40;;;16.47;;
21769;SDS011;11046;49.558;8.674;2023-03-04T15:23:10;41.00;;;17.00;;
21769;SDS011;11046;49.558;8.674;2023-03-04T15:26:13;48.30;;;16.57;;
21769;SDS011;11046;49.558;8.674;2023-03-04T15:29:18;39.53;;;17.23;;
21769;SDS011;11046;49.558;8.674;2023-03-04T15:32:24;42.90;;;16.87;;
21769;SDS011;11046;49.558;8.674;2023-03-04T15:35:28;44.30;;;17.57;;
21769;SDS011;11046;49.558;8.674;2023-03-04T15:38:30;45.30;;;17.60;;
21769;SDS011;11046;49.558;8.674;2023-03-04T15:41:33;48.90;;;17.83;;
21769;SDS011;11046;49.558;8.674;2023-03-04T15:44:36;43.47;;;17.57;;
21769;SDS011;11046;49.558;8.674;2023-03-04T15:47:37;48.50;;;17.63;;
21769;SDS011;11046;49.558;8.674;2023-03-04T15:50:40;48.97;;;18.30;;
21769;SDS011;11046;49.558;8.674;2023-03-04T15:53:56;43.57;;;18.13;;
21769;SDS011;11046;49.558;8.674;2023-03-04T15:56:58;54.57;;;18.50;;
21769;SDS011;11046;49.558;8.674;2023-03-04T15:59:59;49.30;;;17.43;;
21769;SDS011;11046;49.558;8.674;2023-03-04T16:03:00;44.33;;;16.93;;
21769;SDS011;11046;49.558;8.674;2023-03-04T16:06:01;43.87;;;17.50;;
21769;SDS011;11046;49.558;8.674;2023-03-04T16:09:02;49.37;;;18.67;;
21769;SDS011;11046;49.558;8.674;2023-03-04T16:12:08;49.37;;;18.43;;
21769;SDS011;11046;49.558;8.674;2023-03-04T16:15:13;41.57;;;17.67;;
21769;SDS011;11046;49.558;8.674;2023-03-04T16:18:18;44.10;;;18.07;;
21769;SDS011;11046;49.558;8.674;2023-03-04T16:21:26;52.47;;;19.30;;
21769;SDS011;11046;49.558;8.674;2023-03-04T16:24:31;47.17;;;17.57;;
21769;SDS011;11046;49.558;8.674;2023-03-04T16:27:33;52.97;;;19.30;;
21769;SDS011;11046;49.558;8.674;2023-03-04T16:30:33;54.73;;;20.73;;
21769;SDS011;11046;49.558;8.674;2023-03-04T16:33:34;52.30;;;20.30;;
21769;SDS011;11046;49.558;8.674;2023-03-04T16:36:38;51.80;;;20.27;;
21769;SDS011;11046;49.558;8.674;2023-03-04T16:39:38;50.17;;;20.87;;
21769;SDS011;11046;49.558;8.674;2023-03-04T16:42:44;53.00;;;21.03;;
21769;SDS011;11046;49.558;8.674;2023-03-04T16:45:49;49.83;;;20.33;;
21769;SDS011;11046;49.558;8.674;2023-03-04T16:48:50;57.40;;;20.87;;
21769;SDS011;11046;49.558;8.674;2023-03-04T16:51:51;51.80;;;20.50;;
21769;SDS011;11046;49.558;8.674;2023-03-04T16:54:54;49.30;;;19.70;;
21769;SDS011;11046;49.558;8.674;2023-03-04T16:57:55;48.50;;;19.50;;
21769;SDS011;11046;49.558;8.674;2023-03-04T17:01:02;52.07;;;21.13;;
21769;SDS011;11046;49.558;8.674;2023-03-04T17:04:03;53.83;;;21.83;;
21769;SDS011;11046;49.558;8.674;2023-03-04T17:07:04;50.90;;;21.10;;
21769;SDS011;11046;49.558;8.674;2023-03-04T17:10:08;57.43;;;22.73;;
21769;SDS011;11046;49.558;8.674;2023-03-04T17:13:10;56.97;;;20.97;;
21769;SDS011;11046;49.558;8.674;2023-03-04T17:16:18;55.23;;;22.20;;
21769;SDS011;11046;49.558;8.674;2023-03-04T17:19:20;55.60;;;22.03;;
21769;SDS011;11046;49.558;8.674;2023-03-04T17:22:23;62.27;;;22.37;;
21769;SDS011;11046;49.558;8.674;2023-03-04T17:25:28;56.77;;;21.40;;
21769;SDS011;11046;49.558;8.674;2023-03-04T17:28:30;65.07;;;22.80;;
21769;SDS011;11046;49.558;8.674;2023-03-04T17:31:32;55.03;;;19.50;;
21769;SDS011;11046;49.558;8.674;2023-03-04T17:34:32;51.47;;;19.70;;
21769;SDS011;11046;49.558;8.674;2023-03-04T17:37:33;60.37;;;21.07;;
21769;SDS011;11046;49.558;8.674;2023-03-04T17:40:34;62.47;;;21.57;;
21769;SDS011;11046;49.558;8.674;2023-03-04T17:43:35;55.90;;;19.97;;
21769;SDS011;11046;49.558;8.674;2023-03-04T17:46:36;56.37;;;19.50;;
21769;SDS011;11046;49.558;8.674;2023-03-04T17:49:38;55.00;;;21.23;;
21769;SDS011;11046;49.558;8.674;2023-03-04T17:52:40;49.90;;;19.93;;
21769;SDS011;11046;49.558;8.674;2023-03-04T17:55:47;52.10;;;19.80;;
21769;SDS011;11046;49.558;8.674;2023-03-04T17:58:52;48.73;;;18.27;;
21769;SDS011;11046;49.558;8.674;2023-03-04T18:01:54;55.07;;;22.13;;
21769;SDS011;11046;49.558;8.674;2023-03-04T18:04:54;48.17;;;18.40;;
21769;SDS011;11046;49.558;8.674;2023-03-04T18:07:56;63.97;;;22.73;;
21769;SDS011;11046;49.558;8.674;2023-03-04T18:10:58;61.77;;;20.90;;
21769;SDS011;11046;49.558;8.674;2023-03-04T18:13:59;54.83;;;21.77;;
21769;SDS011;11046;49.558;8.674;2023-03-04T18:17:00;52.83;;;21.17;;
21769;SDS011;11046;49.558;8.674;2023-03-04T18:20:02;53.07;;;19.37;;
21769;SDS011;11046;49.558;8.674;2023-03-04T18:23:03;50.57;;;19.07;;
21769;SDS011;11046;49.558;8.674;2023-03-04T18:26:04;47.43;;;18.03;;
21769;SDS011;11046;49.558;8.674;2023-03-04T18:29:04;60.20;;;18.60;;
21769;SDS011;11046;49.558;8.674;2023-03-04T18:32:05;43.70;;;17.50;;
21769;SDS011;11046;49.558;8.674;2023-03-04T18:35:06;45.63;;;17.83;;
21769;SDS011;11046;49.558;8.674;2023-03-04T18:38:07;47.20;;;18.87;;
21769;SDS011;11046;49.558;8.674;2023-03-04T18:41:08;44.13;;;17.47;;
21769;SDS011;11046;49.558;8.674;2023-03-04T18:44:10;53.37;;;19.07;;
21769;SDS011;11046;49.558;8.674;2023-03-04T18:47:11;47.17;;;16.30;;
21769;SDS011;11046;49.558;8.674;2023-03-04T18:50:12;43.03;;;14.80;;
21769;SDS011;11046;49.558;8.674;2023-03-04T18:53:13;45.03;;;16.53;;
21769;SDS011;11046;49.558;8.674;2023-03-04T18:56:22;47.67;;;15.87;;
21769;SDS011;11046;49.558;8.674;2023-03-04T18:59:37;39.93;;;16.20;;
21769;SDS011;11046;49.558;8.674;2023-03-04T19:02:44;43.37;;;16.10;;